Terminal Aerodrome Forecast
Issued by NWS

Current Version | Previous Version | Graphics & Text | Print | Product List | Glossary On
Versions: 1 2 3 4 5 6 7 8 9 10 11 12 13 14 15 16 17 18 19 20 21 22 23 24 25 26 27
000
FTUS41 KRLX 271130
TAFCKB
TAF
KCKB 271130Z 2712/2812 21005KT 2SM SHRA BR BKN015 BKN025
      TEMPO 2712/2714 5SM SHRA BR BKN008
     FM271400 21005KT 6SM BR BKN025
     FM271700 23007KT P6SM BKN035
     FM272000 22007KT P6SM SCT040
     FM280200 VRB03KT P6SM FEW040
     FM280700 00000KT P6SM BKN040=

USA.gov is the U.S. government's official web portal to all federal, state and local government web resources and services.